sensor_id;sensor_type;location;lat;lon;timestamp;P1;durP1;ratioP1;P2;durP2;ratioP2
51224;SDS011;37298;42.688;23.312;2023-06-04T00:01:10;4.22;;;3.03;;
51224;SDS011;37298;42.688;23.312;2023-06-04T00:03:36;3.15;;;2.67;;
51224;SDS011;37298;42.688;23.312;2023-06-04T00:06:02;4.25;;;2.92;;
51224;SDS011;37298;42.688;23.312;2023-06-04T00:08:29;4.65;;;2.95;;
51224;SDS011;37298;42.688;23.312;2023-06-04T00:10:55;3.58;;;2.70;;
51224;SDS011;37298;42.688;23.312;2023-06-04T00:13:21;4.60;;;2.67;;
51224;SDS011;37298;42.688;23.312;2023-06-04T00:15:48;3.83;;;2.70;;
51224;SDS011;37298;42.688;23.312;2023-06-04T00:18:14;4.13;;;2.78;;
51224;SDS011;37298;42.688;23.312;2023-06-04T00:20:40;5.35;;;2.80;;
51224;SDS011;37298;42.688;23.312;2023-06-04T00:23:06;4.20;;;2.55;;
51224;SDS011;37298;42.688;23.312;2023-06-04T00:25:33;4.68;;;2.53;;
51224;SDS011;37298;42.688;23.312;2023-06-04T00:27:59;3.78;;;2.83;;
51224;SDS011;37298;42.688;23.312;2023-06-04T00:30:26;3.50;;;2.72;;
51224;SDS011;37298;42.688;23.312;2023-06-04T00:32:52;5.88;;;2.85;;
51224;SDS011;37298;42.688;23.312;2023-06-04T00:35:18;4.80;;;2.53;;
51224;SDS011;37298;42.688;23.312;2023-06-04T00:37:46;3.70;;;2.83;;
51224;SDS011;37298;42.688;23.312;2023-06-04T00:40:12;3.60;;;2.80;;
51224;SDS011;37298;42.688;23.312;2023-06-04T00:42:39;7.30;;;2.58;;
51224;SDS011;37298;42.688;23.312;2023-06-04T00:45:05;3.80;;;2.75;;
51224;SDS011;37298;42.688;23.312;2023-06-04T00:47:35;4.97;;;2.42;;
51224;SDS011;37298;42.688;23.312;2023-06-04T00:50:02;2.88;;;2.40;;
51224;SDS011;37298;42.688;23.312;2023-06-04T00:52:28;3.20;;;2.58;;
51224;SDS011;37298;42.688;23.312;2023-06-04T00:54:54;4.05;;;2.75;;
51224;SDS011;37298;42.688;23.312;2023-06-04T00:57:21;4.38;;;2.85;;
51224;SDS011;37298;42.688;23.312;2023-06-04T00:59:48;4.50;;;2.83;;
51224;SDS011;37298;42.688;23.312;2023-06-04T01:02:15;4.75;;;3.05;;
51224;SDS011;37298;42.688;23.312;2023-06-04T01:04:44;3.58;;;2.75;;
51224;SDS011;37298;42.688;23.312;2023-06-04T01:07:13;4.47;;;2.95;;
51224;SDS011;37298;42.688;23.312;2023-06-04T01:09:39;3.92;;;2.72;;
51224;SDS011;37298;42.688;23.312;2023-06-04T01:12:06;4.30;;;3.05;;
51224;SDS011;37298;42.688;23.312;2023-06-04T01:14:32;3.65;;;3.22;;
51224;SDS011;37298;42.688;23.312;2023-06-04T01:17:01;3.20;;;2.67;;
51224;SDS011;37298;42.688;23.312;2023-06-04T01:19:43;4.97;;;3.10;;
51224;SDS011;37298;42.688;23.312;2023-06-04T01:22:15;3.35;;;2.55;;
51224;SDS011;37298;42.688;23.312;2023-06-04T01:24:46;4.32;;;2.67;;
51224;SDS011;37298;42.688;23.312;2023-06-04T01:27:15;4.65;;;2.55;;
51224;SDS011;37298;42.688;23.312;2023-06-04T01:29:41;3.05;;;2.33;;
51224;SDS011;37298;42.688;23.312;2023-06-04T01:32:08;3.83;;;2.80;;
51224;SDS011;37298;42.688;23.312;2023-06-04T01:34:42;5.65;;;2.42;;
51224;SDS011;37298;42.688;23.312;2023-06-04T01:37:09;4.03;;;2.90;;
51224;SDS011;37298;42.688;23.312;2023-06-04T01:39:37;3.40;;;2.90;;
51224;SDS011;37298;42.688;23.312;2023-06-04T01:42:03;3.60;;;2.53;;
51224;SDS011;37298;42.688;23.312;2023-06-04T01:44:29;3.33;;;2.80;;
51224;SDS011;37298;42.688;23.312;2023-06-04T01:46:56;4.00;;;2.63;;
51224;SDS011;37298;42.688;23.312;2023-06-04T01:49:22;4.55;;;2.55;;
51224;SDS011;37298;42.688;23.312;2023-06-04T01:51:48;3.45;;;2.58;;
51224;SDS011;37298;42.688;23.312;2023-06-04T01:54:15;3.10;;;2.38;;
51224;SDS011;37298;42.688;23.312;2023-06-04T01:56:41;3.00;;;2.50;;
51224;SDS011;37298;42.688;23.312;2023-06-04T01:59:08;3.05;;;2.65;;
51224;SDS011;37298;42.688;23.312;2023-06-04T02:01:37;4.20;;;2.38;;
51224;SDS011;37298;42.688;23.312;2023-06-04T02:04:04;3.47;;;2.42;;
51224;SDS011;37298;42.688;23.312;2023-06-04T02:06:30;4.15;;;2.35;;
51224;SDS011;37298;42.688;23.312;2023-06-04T02:08:57;3.58;;;2.50;;
51224;SDS011;37298;42.688;23.312;2023-06-04T02:11:23;3.80;;;2.47;;
51224;SDS011;37298;42.688;23.312;2023-06-04T02:13:49;4.18;;;2.50;;
51224;SDS011;37298;42.688;23.312;2023-06-04T02:16:16;2.78;;;2.42;;
51224;SDS011;37298;42.688;23.312;2023-06-04T02:18:42;3.45;;;2.60;;
51224;SDS011;37298;42.688;23.312;2023-06-04T02:21:08;3.10;;;2.42;;
51224;SDS011;37298;42.688;23.312;2023-06-04T02:23:35;3.92;;;2.20;;
51224;SDS011;37298;42.688;23.312;2023-06-04T02:26:01;4.65;;;3.42;;
51224;SDS011;37298;42.688;23.312;2023-06-04T02:28:27;3.00;;;2.30;;
51224;SDS011;37298;42.688;23.312;2023-06-04T02:30:53;2.92;;;2.25;;
51224;SDS011;37298;42.688;23.312;2023-06-04T02:33:19;2.80;;;2.20;;
51224;SDS011;37298;42.688;23.312;2023-06-04T02:35:47;5.13;;;2.38;;
51224;SDS011;37298;42.688;23.312;2023-06-04T02:38:13;4.93;;;2.47;;
51224;SDS011;37298;42.688;23.312;2023-06-04T02:40:41;4.95;;;2.75;;
51224;SDS011;37298;42.688;23.312;2023-06-04T02:43:07;3.00;;;2.42;;
51224;SDS011;37298;42.688;23.312;2023-06-04T02:45:34;3.35;;;2.60;;
51224;SDS011;37298;42.688;23.312;2023-06-04T02:48:00;4.03;;;2.53;;
51224;SDS011;37298;42.688;23.312;2023-06-04T02:50:26;6.00;;;2.47;;
51224;SDS011;37298;42.688;23.312;2023-06-04T02:52:52;2.58;;;2.15;;
51224;SDS011;37298;42.688;23.312;2023-06-04T02:55:18;3.15;;;2.47;;
51224;SDS011;37298;42.688;23.312;2023-06-04T02:57:45;3.22;;;2.13;;
51224;SDS011;37298;42.688;23.312;2023-06-04T03:00:12;4.13;;;2.53;;
51224;SDS011;37298;42.688;23.312;2023-06-04T03:02:42;4.75;;;2.50;;
51224;SDS011;37298;42.688;23.312;2023-06-04T03:05:09;3.45;;;2.45;;
51224;SDS011;37298;42.688;23.312;2023-06-04T03:07:36;3.72;;;2.92;;
51224;SDS011;37298;42.688;23.312;2023-06-04T03:10:03;3.20;;;2.47;;
51224;SDS011;37298;42.688;23.312;2023-06-04T03:12:30;9.05;;;2.72;;
51224;SDS011;37298;42.688;23.312;2023-06-04T03:14:57;3.20;;;2.20;;
51224;SDS011;37298;42.688;23.312;2023-06-04T03:17:25;3.55;;;2.47;;
51224;SDS011;37298;42.688;23.312;2023-06-04T03:19:51;2.92;;;2.30;;
51224;SDS011;37298;42.688;23.312;2023-06-04T03:22:17;3.53;;;2.38;;
51224;SDS011;37298;42.688;23.312;2023-06-04T03:24:44;4.20;;;3.00;;
51224;SDS011;37298;42.688;23.312;2023-06-04T03:27:10;5.43;;;2.60;;
51224;SDS011;37298;42.688;23.312;2023-06-04T03:29:39;5.18;;;2.33;;
51224;SDS011;37298;42.688;23.312;2023-06-04T03:32:07;4.85;;;2.80;;
51224;SDS011;37298;42.688;23.312;2023-06-04T03:34:34;3.33;;;2.38;;
51224;SDS011;37298;42.688;23.312;2023-06-04T03:37:00;3.22;;;2.45;;
51224;SDS011;37298;42.688;23.312;2023-06-04T03:39:27;3.78;;;2.53;;
51224;SDS011;37298;42.688;23.312;2023-06-04T03:41:54;4.35;;;3.25;;
51224;SDS011;37298;42.688;23.312;2023-06-04T03:44:22;5.07;;;2.80;;
51224;SDS011;37298;42.688;23.312;2023-06-04T03:46:49;3.63;;;2.70;;
51224;SDS011;37298;42.688;23.312;2023-06-04T03:49:17;4.50;;;2.70;;
51224;SDS011;37298;42.688;23.312;2023-06-04T03:54:11;3.47;;;2.83;;
51224;SDS011;37298;42.688;23.312;2023-06-04T03:56:38;3.90;;;2.70;;
51224;SDS011;37298;42.688;23.312;2023-06-04T03:59:07;4.20;;;2.92;;
51224;SDS011;37298;42.688;23.312;2023-06-04T04:01:34;4.35;;;2.92;;
51224;SDS011;37298;42.688;23.312;2023-06-04T04:04:01;3.90;;;3.20;;
51224;SDS011;37298;42.688;23.312;2023-06-04T04:06:28;4.22;;;3.03;;
51224;SDS011;37298;42.688;23.312;2023-06-04T04:08:54;4.43;;;2.85;;
51224;SDS011;37298;42.688;23.312;2023-06-04T04:11:21;3.45;;;2.53;;
51224;SDS011;37298;42.688;23.312;2023-06-04T04:13:47;6.13;;;3.03;;
51224;SDS011;37298;42.688;23.312;2023-06-04T04:16:14;4.90;;;2.88;;
51224;SDS011;37298;42.688;23.312;2023-06-04T04:18:41;3.45;;;2.78;;
51224;SDS011;37298;42.688;23.312;2023-06-04T04:21:08;4.28;;;2.90;;
51224;SDS011;37298;42.688;23.312;2023-06-04T04:26:03;4.35;;;3.28;;
51224;SDS011;37298;42.688;23.312;2023-06-04T04:28:30;4.93;;;3.15;;
51224;SDS011;37298;42.688;23.312;2023-06-04T04:30:58;3.45;;;2.95;;
51224;SDS011;37298;42.688;23.312;2023-06-04T04:33:25;4.20;;;3.10;;
51224;SDS011;37298;42.688;23.312;2023-06-04T04:35:52;5.10;;;3.22;;
51224;SDS011;37298;42.688;23.312;2023-06-04T04:38:20;3.22;;;2.70;;
51224;SDS011;37298;42.688;23.312;2023-06-04T04:40:54;4.15;;;3.10;;
51224;SDS011;37298;42.688;23.312;2023-06-04T04:43:32;3.65;;;3.33;;
51224;SDS011;37298;42.688;23.312;2023-06-04T04:46:04;7.85;;;3.63;;
51224;SDS011;37298;42.688;23.312;2023-06-04T04:48:31;5.85;;;3.20;;
51224;SDS011;37298;42.688;23.312;2023-06-04T04:50:57;7.07;;;3.35;;
51224;SDS011;37298;42.688;23.312;2023-06-04T04:53:25;5.28;;;3.25;;
51224;SDS011;37298;42.688;23.312;2023-06-04T04:55:51;5.13;;;3.33;;
51224;SDS011;37298;42.688;23.312;2023-06-04T04:58:18;4.47;;;3.28;;
51224;SDS011;37298;42.688;23.312;2023-06-04T05:00:45;6.15;;;3.38;;
51224;SDS011;37298;42.688;23.312;2023-06-04T05:03:13;4.32;;;3.42;;
51224;SDS011;37298;42.688;23.312;2023-06-04T05:05:39;3.38;;;2.97;;
51224;SDS011;37298;42.688;23.312;2023-06-04T05:08:06;8.48;;;3.65;;
51224;SDS011;37298;42.688;23.312;2023-06-04T05:10:37;4.63;;;3.47;;
51224;SDS011;37298;42.688;23.312;2023-06-04T05:13:04;3.95;;;3.30;;
51224;SDS011;37298;42.688;23.312;2023-06-04T05:15:38;5.28;;;3.97;;
51224;SDS011;37298;42.688;23.312;2023-06-04T05:18:08;6.32;;;3.35;;
51224;SDS011;37298;42.688;23.312;2023-06-04T05:20:36;5.15;;;3.80;;
51224;SDS011;37298;42.688;23.312;2023-06-04T05:23:04;5.10;;;3.55;;
51224;SDS011;37298;42.688;23.312;2023-06-04T05:25:32;4.47;;;3.53;;
51224;SDS011;37298;42.688;23.312;2023-06-04T05:28:00;4.68;;;3.78;;
51224;SDS011;37298;42.688;23.312;2023-06-04T05:30:27;6.88;;;3.78;;
51224;SDS011;37298;42.688;23.312;2023-06-04T05:32:53;4.78;;;3.45;;
51224;SDS011;37298;42.688;23.312;2023-06-04T05:35:23;7.75;;;3.28;;
51224;SDS011;37298;42.688;23.312;2023-06-04T05:37:50;5.45;;;4.00;;
51224;SDS011;37298;42.688;23.312;2023-06-04T05:40:21;6.57;;;3.90;;
51224;SDS011;37298;42.688;23.312;2023-06-04T05:42:48;8.77;;;3.60;;
51224;SDS011;37298;42.688;23.312;2023-06-04T05:45:15;5.70;;;3.45;;
51224;SDS011;37298;42.688;23.312;2023-06-04T05:47:42;6.70;;;3.42;;
51224;SDS011;37298;42.688;23.312;2023-06-04T05:50:09;4.75;;;3.83;;
51224;SDS011;37298;42.688;23.312;2023-06-04T05:52:37;4.32;;;3.47;;
51224;SDS011;37298;42.688;23.312;2023-06-04T05:55:08;8.43;;;3.60;;
51224;SDS011;37298;42.688;23.312;2023-06-04T06:00:02;6.38;;;3.88;;
51224;SDS011;37298;42.688;23.312;2023-06-04T06:02:39;4.72;;;3.13;;
51224;SDS011;37298;42.688;23.312;2023-06-04T06:05:14;4.13;;;3.13;;
51224;SDS011;37298;42.688;23.312;2023-06-04T06:07:41;5.85;;;3.47;;
51224;SDS011;37298;42.688;23.312;2023-06-04T06:10:08;4.53;;;3.22;;
51224;SDS011;37298;42.688;23.312;2023-06-04T06:12:34;4.78;;;3.20;;
51224;SDS011;37298;42.688;23.312;2023-06-04T06:15:00;4.97;;;3.63;;
51224;SDS011;37298;42.688;23.312;2023-06-04T06:17:27;5.70;;;3.78;;
51224;SDS011;37298;42.688;23.312;2023-06-04T06:19:54;4.53;;;3.50;;
51224;SDS011;37298;42.688;23.312;2023-06-04T06:22:20;6.32;;;3.80;;
51224;SDS011;37298;42.688;23.312;2023-06-04T06:24:48;4.88;;;3.40;;
51224;SDS011;37298;42.688;23.312;2023-06-04T06:27:14;4.53;;;3.50;;
51224;SDS011;37298;42.688;23.312;2023-06-04T06:29:42;7.25;;;3.60;;
51224;SDS011;37298;42.688;23.312;2023-06-04T06:32:08;5.30;;;3.30;;
51224;SDS011;37298;42.688;23.312;2023-06-04T06:34:35;4.35;;;3.03;;
51224;SDS011;37298;42.688;23.312;2023-06-04T06:37:01;5.35;;;3.42;;
51224;SDS011;37298;42.688;23.312;2023-06-04T06:39:27;4.78;;;3.35;;
51224;SDS011;37298;42.688;23.312;2023-06-04T06:41:54;5.88;;;3.53;;
51224;SDS011;37298;42.688;23.312;2023-06-04T06:44:24;6.45;;;3.53;;
51224;SDS011;37298;42.688;23.312;2023-06-04T06:46:50;4.30;;;3.25;;
51224;SDS011;37298;42.688;23.312;2023-06-04T06:49:16;4.97;;;3.72;;
51224;SDS011;37298;42.688;23.312;2023-06-04T06:51:42;8.48;;;3.70;;
51224;SDS011;37298;42.688;23.312;2023-06-04T06:54:08;4.82;;;3.60;;
51224;SDS011;37298;42.688;23.312;2023-06-04T06:56:34;5.47;;;3.20;;
51224;SDS011;37298;42.688;23.312;2023-06-04T06:59:01;3.83;;;2.85;;
51224;SDS011;37298;42.688;23.312;2023-06-04T07:01:39;6.68;;;3.40;;
51224;SDS011;37298;42.688;23.312;2023-06-04T07:05:03;5.43;;;3.30;;
51224;SDS011;37298;42.688;23.312;2023-06-04T07:11:39;6.53;;;4.03;;
51224;SDS011;37298;42.688;23.312;2023-06-04T07:14:56;5.55;;;3.33;;
51224;SDS011;37298;42.688;23.312;2023-06-04T07:18:13;5.95;;;3.45;;
51224;SDS011;37298;42.688;23.312;2023-06-04T07:21:12;6.22;;;3.97;;
51224;SDS011;37298;42.688;23.312;2023-06-04T07:24:54;6.20;;;3.95;;
51224;SDS011;37298;42.688;23.312;2023-06-04T07:27:51;5.45;;;3.80;;
51224;SDS011;37298;42.688;23.312;2023-06-04T07:34:30;6.90;;;3.50;;
51224;SDS011;37298;42.688;23.312;2023-06-04T07:37:45;5.00;;;3.50;;
51224;SDS011;37298;42.688;23.312;2023-06-04T07:41:21;6.80;;;4.05;;
51224;SDS011;37298;42.688;23.312;2023-06-04T07:44:22;6.65;;;4.28;;
51224;SDS011;37298;42.688;23.312;2023-06-04T07:50:41;7.20;;;3.85;;
51224;SDS011;37298;42.688;23.312;2023-06-04T07:54:05;5.47;;;3.42;;
51224;SDS011;37298;42.688;23.312;2023-06-04T07:57:19;7.45;;;4.22;;
51224;SDS011;37298;42.688;23.312;2023-06-04T08:00:25;7.90;;;3.70;;
51224;SDS011;37298;42.688;23.312;2023-06-04T08:10:20;8.63;;;4.80;;
51224;SDS011;37298;42.688;23.312;2023-06-04T08:13:29;9.07;;;4.28;;
51224;SDS011;37298;42.688;23.312;2023-06-04T08:19:56;10.43;;;5.45;;
51224;SDS011;37298;42.688;23.312;2023-06-04T08:23:20;6.30;;;4.43;;
51224;SDS011;37298;42.688;23.312;2023-06-04T08:42:38;12.57;;;5.85;;
51224;SDS011;37298;42.688;23.312;2023-06-04T08:46:08;9.68;;;5.53;;
51224;SDS011;37298;42.688;23.312;2023-06-04T08:50:03;8.40;;;5.30;;
51224;SDS011;37298;42.688;23.312;2023-06-04T08:53:32;8.48;;;5.35;;
51224;SDS011;37298;42.688;23.312;2023-06-04T08:56:43;9.35;;;5.45;;
51224;SDS011;37298;42.688;23.312;2023-06-04T08:59:56;8.20;;;5.20;;
51224;SDS011;37298;42.688;23.312;2023-06-04T09:10:40;6.97;;;5.03;;
51224;SDS011;37298;42.688;23.312;2023-06-04T09:23:59;7.30;;;5.28;;
51224;SDS011;37298;42.688;23.312;2023-06-04T09:27:43;10.77;;;5.60;;
51224;SDS011;37298;42.688;23.312;2023-06-04T09:30:39;7.28;;;5.63;;
51224;SDS011;37298;42.688;23.312;2023-06-04T09:33:50;9.10;;;6.07;;
51224;SDS011;37298;42.688;23.312;2023-06-04T09:37:31;9.82;;;5.68;;
51224;SDS011;37298;42.688;23.312;2023-06-04T09:55:14;8.93;;;5.38;;
51224;SDS011;37298;42.688;23.312;2023-06-04T09:58:41;9.40;;;6.63;;
51224;SDS011;37298;42.688;23.312;2023-06-04T10:01:43;9.60;;;6.63;;
51224;SDS011;37298;42.688;23.312;2023-06-04T10:07:57;11.82;;;6.18;;
51224;SDS011;37298;42.688;23.312;2023-06-04T10:11:13;12.02;;;5.95;;
51224;SDS011;37298;42.688;23.312;2023-06-04T10:14:40;7.78;;;5.28;;
51224;SDS011;37298;42.688;23.312;2023-06-04T10:18:11;8.25;;;5.20;;
51224;SDS011;37298;42.688;23.312;2023-06-04T10:25:29;7.65;;;4.88;;
51224;SDS011;37298;42.688;23.312;2023-06-04T10:35:48;7.63;;;5.57;;
51224;SDS011;37298;42.688;23.312;2023-06-04T10:41:17;7.00;;;5.03;;
51224;SDS011;37298;42.688;23.312;2023-06-04T10:42:38;8.48;;;4.80;;
51224;SDS011;37298;42.688;23.312;2023-06-04T10:46:13;6.65;;;5.00;;
51224;SDS011;37298;42.688;23.312;2023-06-04T10:52:20;7.28;;;5.25;;
51224;SDS011;37298;42.688;23.312;2023-06-04T11:02:34;7.32;;;4.70;;
51224;SDS011;37298;42.688;23.312;2023-06-04T11:05:48;7.35;;;5.20;;
51224;SDS011;37298;42.688;23.312;2023-06-04T11:19:13;8.43;;;5.80;;
51224;SDS011;37298;42.688;23.312;2023-06-04T11:22:35;8.48;;;5.60;;
51224;SDS011;37298;42.688;23.312;2023-06-04T11:25:37;9.57;;;6.28;;
51224;SDS011;37298;42.688;23.312;2023-06-04T11:39:46;11.55;;;6.10;;
51224;SDS011;37298;42.688;23.312;2023-06-04T11:50:32;6.72;;;5.32;;
51224;SDS011;37298;42.688;23.312;2023-06-04T11:54:08;7.40;;;6.07;;
51224;SDS011;37298;42.688;23.312;2023-06-04T11:57:35;7.10;;;5.80;;
51224;SDS011;37298;42.688;23.312;2023-06-04T12:00:19;7.07;;;6.03;;
51224;SDS011;37298;42.688;23.312;2023-06-04T12:07:09;8.60;;;6.00;;
51224;SDS011;37298;42.688;23.312;2023-06-04T12:10:18;8.98;;;6.15;;
51224;SDS011;37298;42.688;23.312;2023-06-04T12:21:05;8.30;;;5.82;;
51224;SDS011;37298;42.688;23.312;2023-06-04T12:24:48;7.55;;;6.15;;
51224;SDS011;37298;42.688;23.312;2023-06-04T12:45:55;7.07;;;5.60;;
51224;SDS011;37298;42.688;23.312;2023-06-04T12:57:08;8.40;;;5.50;;
51224;SDS011;37298;42.688;23.312;2023-06-04T13:07:45;9.70;;;5.90;;
51224;SDS011;37298;42.688;23.312;2023-06-04T13:10:59;8.23;;;4.72;;
51224;SDS011;37298;42.688;23.312;2023-06-04T13:14:32;6.78;;;5.20;;
51224;SDS011;37298;42.688;23.312;2023-06-04T13:18:10;7.13;;;5.45;;
51224;SDS011;37298;42.688;23.312;2023-06-04T13:38:22;8.77;;;4.60;;
51224;SDS011;37298;42.688;23.312;2023-06-04T13:41:29;6.28;;;4.88;;
51224;SDS011;37298;42.688;23.312;2023-06-04T13:44:35;8.18;;;4.32;;
51224;SDS011;37298;42.688;23.312;2023-06-04T13:47:59;5.50;;;4.33;;
51224;SDS011;37298;42.688;23.312;2023-06-04T13:51:03;5.70;;;4.65;;
51224;SDS011;37298;42.688;23.312;2023-06-04T14:01:17;9.80;;;4.55;;
51224;SDS011;37298;42.688;23.312;2023-06-04T14:11:00;6.00;;;4.70;;
51224;SDS011;37298;42.688;23.312;2023-06-04T14:17:42;7.22;;;5.10;;
51224;SDS011;37298;42.688;23.312;2023-06-04T14:21:13;8.05;;;4.72;;
51224;SDS011;37298;42.688;23.312;2023-06-04T14:31:13;6.47;;;4.82;;
51224;SDS011;37298;42.688;23.312;2023-06-04T14:37:50;6.63;;;5.35;;
51224;SDS011;37298;42.688;23.312;2023-06-04T14:45:09;7.40;;;5.38;;
51224;SDS011;37298;42.688;23.312;2023-06-04T14:50:51;7.80;;;5.72;;
51224;SDS011;37298;42.688;23.312;2023-06-04T14:54:23;7.78;;;5.82;;
51224;SDS011;37298;42.688;23.312;2023-06-04T14:57:50;7.95;;;5.72;;
51224;SDS011;37298;42.688;23.312;2023-06-04T15:01:43;7.80;;;5.20;;
51224;SDS011;37298;42.688;23.312;2023-06-04T15:05:22;9.07;;;5.60;;
51224;SDS011;37298;42.688;23.312;2023-06-04T15:08:54;7.22;;;5.63;;
51224;SDS011;37298;42.688;23.312;2023-06-04T15:11:21;8.35;;;5.97;;
51224;SDS011;37298;42.688;23.312;2023-06-04T15:13:48;11.55;;;6.63;;
51224;SDS011;37298;42.688;23.312;2023-06-04T15:16:16;6.97;;;4.57;;
51224;SDS011;37298;42.688;23.312;2023-06-04T15:18:42;7.55;;;6.25;;
51224;SDS011;37298;42.688;23.312;2023-06-04T15:21:08;7.55;;;5.40;;
51224;SDS011;37298;42.688;23.312;2023-06-04T15:23:34;9.20;;;6.30;;
51224;SDS011;37298;42.688;23.312;2023-06-04T15:26:00;7.35;;;5.50;;
51224;SDS011;37298;42.688;23.312;2023-06-04T15:28:27;7.15;;;6.03;;
51224;SDS011;37298;42.688;23.312;2023-06-04T15:30:53;7.95;;;6.22;;
51224;SDS011;37298;42.688;23.312;2023-06-04T15:33:19;7.55;;;5.60;;
51224;SDS011;37298;42.688;23.312;2023-06-04T15:35:46;8.90;;;5.70;;
51224;SDS011;37298;42.688;23.312;2023-06-04T15:38:12;12.45;;;5.57;;
51224;SDS011;37298;42.688;23.312;2023-06-04T15:40:38;7.70;;;5.97;;
51224;SDS011;37298;42.688;23.312;2023-06-04T15:43:04;8.55;;;6.10;;
51224;SDS011;37298;42.688;23.312;2023-06-04T15:45:31;10.23;;;5.90;;
51224;SDS011;37298;42.688;23.312;2023-06-04T15:47:57;10.13;;;6.55;;
51224;SDS011;37298;42.688;23.312;2023-06-04T15:50:23;8.50;;;6.78;;
51224;SDS011;37298;42.688;23.312;2023-06-04T15:52:50;8.30;;;7.28;;
51224;SDS011;37298;42.688;23.312;2023-06-04T15:55:16;11.55;;;8.02;;
51224;SDS011;37298;42.688;23.312;2023-06-04T15:57:42;10.20;;;7.88;;
51224;SDS011;37298;42.688;23.312;2023-06-04T16:00:09;14.27;;;7.95;;
51224;SDS011;37298;42.688;23.312;2023-06-04T16:02:36;12.35;;;7.75;;
51224;SDS011;37298;42.688;23.312;2023-06-04T16:05:02;13.10;;;7.90;;
51224;SDS011;37298;42.688;23.312;2023-06-04T16:07:28;16.85;;;8.68;;
51224;SDS011;37298;42.688;23.312;2023-06-04T16:09:55;15.60;;;9.88;;
51224;SDS011;37298;42.688;23.312;2023-06-04T16:12:21;15.18;;;8.98;;
51224;SDS011;37298;42.688;23.312;2023-06-04T16:14:47;18.85;;;9.60;;
51224;SDS011;37298;42.688;23.312;2023-06-04T16:17:13;13.77;;;10.25;;
51224;SDS011;37298;42.688;23.312;2023-06-04T16:19:40;15.38;;;9.07;;
51224;SDS011;37298;42.688;23.312;2023-06-04T16:22:06;13.77;;;9.65;;
51224;SDS011;37298;42.688;23.312;2023-06-04T16:24:32;14.85;;;10.45;;
51224;SDS011;37298;42.688;23.312;2023-06-04T16:26:58;14.07;;;9.60;;
51224;SDS011;37298;42.688;23.312;2023-06-04T16:29:24;18.58;;;10.38;;
51224;SDS011;37298;42.688;23.312;2023-06-04T16:31:51;15.77;;;10.68;;
51224;SDS011;37298;42.688;23.312;2023-06-04T16:34:17;17.58;;;10.52;;
51224;SDS011;37298;42.688;23.312;2023-06-04T16:36:44;14.68;;;9.65;;
51224;SDS011;37298;42.688;23.312;2023-06-04T16:39:10;15.38;;;11.02;;
51224;SDS011;37298;42.688;23.312;2023-06-04T16:41:36;18.95;;;11.05;;
51224;SDS011;37298;42.688;23.312;2023-06-04T16:44:02;14.98;;;10.73;;
51224;SDS011;37298;42.688;23.312;2023-06-04T16:46:28;17.67;;;11.68;;
51224;SDS011;37298;42.688;23.312;2023-06-04T16:48:55;16.25;;;10.90;;
51224;SDS011;37298;42.688;23.312;2023-06-04T16:51:21;15.45;;;10.55;;
51224;SDS011;37298;42.688;23.312;2023-06-04T16:53:48;17.90;;;10.93;;
51224;SDS011;37298;42.688;23.312;2023-06-04T16:56:14;18.52;;;10.77;;
51224;SDS011;37298;42.688;23.312;2023-06-04T16:58:40;18.48;;;10.88;;
51224;SDS011;37298;42.688;23.312;2023-06-04T17:01:06;15.73;;;10.00;;
51224;SDS011;37298;42.688;23.312;2023-06-04T17:06:02;16.50;;;10.30;;
51224;SDS011;37298;42.688;23.312;2023-06-04T17:08:28;14.68;;;10.00;;
51224;SDS011;37298;42.688;23.312;2023-06-04T17:10:55;14.77;;;9.95;;
51224;SDS011;37298;42.688;23.312;2023-06-04T17:13:21;15.23;;;10.30;;
51224;SDS011;37298;42.688;23.312;2023-06-04T17:15:47;14.40;;;10.02;;
51224;SDS011;37298;42.688;23.312;2023-06-04T17:18:13;16.17;;;10.88;;
51224;SDS011;37298;42.688;23.312;2023-06-04T17:20:39;15.05;;;9.55;;
51224;SDS011;37298;42.688;23.312;2023-06-04T17:23:18;13.73;;;9.43;;
51224;SDS011;37298;42.688;23.312;2023-06-04T17:25:44;12.57;;;9.90;;
51224;SDS011;37298;42.688;23.312;2023-06-04T17:28:11;17.83;;;9.82;;
51224;SDS011;37298;42.688;23.312;2023-06-04T17:30:37;12.27;;;9.18;;
51224;SDS011;37298;42.688;23.312;2023-06-04T17:33:03;9.98;;;7.20;;
51224;SDS011;37298;42.688;23.312;2023-06-04T17:35:29;13.90;;;9.20;;
51224;SDS011;37298;42.688;23.312;2023-06-04T17:37:56;34.60;;;24.40;;
51224;SDS011;37298;42.688;23.312;2023-06-04T17:40:22;16.67;;;11.45;;
51224;SDS011;37298;42.688;23.312;2023-06-04T17:42:48;14.25;;;10.82;;
51224;SDS011;37298;42.688;23.312;2023-06-04T17:45:15;19.45;;;12.38;;
51224;SDS011;37298;42.688;23.312;2023-06-04T17:47:41;18.58;;;11.38;;
51224;SDS011;37298;42.688;23.312;2023-06-04T17:50:07;14.20;;;9.77;;
51224;SDS011;37298;42.688;23.312;2023-06-04T17:52:36;13.25;;;9.43;;
51224;SDS011;37298;42.688;23.312;2023-06-04T17:55:04;13.38;;;8.98;;
51224;SDS011;37298;42.688;23.312;2023-06-04T17:57:30;16.70;;;10.32;;
51224;SDS011;37298;42.688;23.312;2023-06-04T17:59:57;15.23;;;8.77;;
51224;SDS011;37298;42.688;23.312;2023-06-04T18:02:24;12.23;;;8.85;;
51224;SDS011;37298;42.688;23.312;2023-06-04T18:04:50;12.05;;;6.95;;
51224;SDS011;37298;42.688;23.312;2023-06-04T18:07:17;11.20;;;7.47;;
51224;SDS011;37298;42.688;23.312;2023-06-04T18:09:43;14.63;;;8.23;;
51224;SDS011;37298;42.688;23.312;2023-06-04T18:12:10;16.42;;;8.05;;
51224;SDS011;37298;42.688;23.312;2023-06-04T18:14:37;11.20;;;8.40;;
51224;SDS011;37298;42.688;23.312;2023-06-04T18:17:03;13.98;;;8.73;;
51224;SDS011;37298;42.688;23.312;2023-06-04T18:19:30;18.30;;;10.20;;
51224;SDS011;37298;42.688;23.312;2023-06-04T18:21:56;13.93;;;10.05;;
51224;SDS011;37298;42.688;23.312;2023-06-04T18:24:22;15.90;;;9.48;;
51224;SDS011;37298;42.688;23.312;2023-06-04T18:26:48;14.23;;;8.40;;
51224;SDS011;37298;42.688;23.312;2023-06-04T18:29:15;13.05;;;7.18;;
51224;SDS011;37298;42.688;23.312;2023-06-04T18:31:41;12.63;;;8.00;;
51224;SDS011;37298;42.688;23.312;2023-06-04T18:34:07;13.13;;;7.95;;
51224;SDS011;37298;42.688;23.312;2023-06-04T18:36:36;9.65;;;6.82;;
51224;SDS011;37298;42.688;23.312;2023-06-04T18:39:02;12.18;;;6.53;;
51224;SDS011;37298;42.688;23.312;2023-06-04T18:41:29;8.88;;;5.43;;
51224;SDS011;37298;42.688;23.312;2023-06-04T18:43:55;8.05;;;5.53;;
51224;SDS011;37298;42.688;23.312;2023-06-04T18:46:21;8.00;;;5.15;;
51224;SDS011;37298;42.688;23.312;2023-06-04T18:48:48;6.70;;;5.05;;
51224;SDS011;37298;42.688;23.312;2023-06-04T18:51:14;5.70;;;4.38;;
51224;SDS011;37298;42.688;23.312;2023-06-04T18:53:41;11.13;;;5.05;;
51224;SDS011;37298;42.688;23.312;2023-06-04T18:56:07;5.65;;;3.92;;
51224;SDS011;37298;42.688;23.312;2023-06-04T18:58:33;5.13;;;4.15;;
51224;SDS011;37298;42.688;23.312;2023-06-04T19:00:59;6.80;;;4.32;;
51224;SDS011;37298;42.688;23.312;2023-06-04T19:03:25;6.22;;;3.92;;
51224;SDS011;37298;42.688;23.312;2023-06-04T19:05:51;7.65;;;4.80;;
51224;SDS011;37298;42.688;23.312;2023-06-04T19:08:18;5.38;;;4.13;;
51224;SDS011;37298;42.688;23.312;2023-06-04T19:10:45;6.80;;;4.72;;
51224;SDS011;37298;42.688;23.312;2023-06-04T19:13:15;9.77;;;5.07;;
51224;SDS011;37298;42.688;23.312;2023-06-04T19:15:42;7.97;;;5.03;;
51224;SDS011;37298;42.688;23.312;2023-06-04T19:18:08;8.18;;;4.05;;
51224;SDS011;37298;42.688;23.312;2023-06-04T19:20:35;6.93;;;4.53;;
51224;SDS011;37298;42.688;23.312;2023-06-04T19:23:01;7.55;;;4.53;;
51224;SDS011;37298;42.688;23.312;2023-06-04T19:25:27;6.20;;;4.45;;